»·PEaware :: N49WA KMRY-KEGE

N49WA :: KMRY-KEGE

FLIGHT INFORMATION

Flight Status: Arrived
Operator: Privately registered:
United States
More flights under this callsign
Pilot: Jose A. (18565)
Aircraft: GATES LEARJET LEARJET 25
(LJ25)
More flights by this aircraft type
Origin: KMRY Monterey Peninsula
United States
Destination: KEGE Eagle Co Regl
United States
More flights between these airports :: More routes between these airports
Route: +MRY5 SNS V230 NIKOL V244 OAL J80 JNC RLG
File this flight plan on PilotEdge
Remarks:
Altitude:
(Current/Filed)
31,000ft
Speed:
(Current/Filed)
460kts
Departed: 04-Oct-19 08:19 AM
Arrived: 04-Oct-19 10:12 AM
Distance/Time
Traveled:
727nm/1:53
Distance/Time
To Go:
Arrived

Flight Plot

Page will automatically refresh every two minutes.

Flight plan parsing failed; only flown route is shown


Map Options




Map Legend


Flown Route
Filed Route
Departure Airport
Arrival Airport
Navaid (VOR, NDB)
Fix

Horizontal Profiles

Position Reports

Time Latitude Longitude Heading Altitude Ground
Speed
04-Oct-19 07:52 36.589191 -121.858524 344 260ft 0kts
04-Oct-19 07:53 36.589191 -121.858524 344 260ft 0kts
04-Oct-19 07:54 36.589191 -121.858524 344 260ft 0kts
04-Oct-19 07:55 36.589191 -121.858524 344 260ft 0kts
04-Oct-19 07:56 36.589191 -121.858524 344 260ft 0kts
04-Oct-19 07:57 36.589191 -121.858524 344 260ft 0kts
04-Oct-19 07:58 36.589191 -121.858524 344 260ft 0kts
04-Oct-19 07:59 36.589191 -121.858524 344 260ft 0kts
04-Oct-19 08:00 36.589191 -121.858524 344 260ft 0kts
04-Oct-19 08:01 36.589191 -121.858524 344 260ft 0kts
04-Oct-19 08:02 36.589191 -121.858524 344 260ft 0kts
04-Oct-19 08:03 36.589191 -121.858524 344 260ft 0kts
04-Oct-19 08:04 36.589191 -121.858524 344 260ft 0kts
04-Oct-19 08:05 36.589191 -121.858524 344 260ft 0kts
04-Oct-19 08:06 36.589191 -121.858524 344 260ft 0kts
04-Oct-19 08:07 36.589191 -121.858524 344 260ft 0kts
04-Oct-19 08:08 36.589191 -121.858524 344 260ft 0kts
04-Oct-19 08:09 36.589493 -121.858199 74 260ft 6kts
04-Oct-19 08:10 36.589436 -121.854351 102 260ft 15kts
04-Oct-19 08:11 36.588156 -121.850249 113 260ft 15kts
04-Oct-19 08:12 36.586565 -121.845917 124 260ft 13kts
04-Oct-19 08:13 36.585199 -121.841959 112 260ft 12kts
04-Oct-19 08:14 36.583959 -121.838281 112 260ft 12kts
04-Oct-19 08:15 36.582892 -121.835002 101 260ft 5kts
04-Oct-19 08:16 36.582850 -121.834595 94 260ft 6kts
04-Oct-19 08:17 36.583446 -121.833907 294 260ft 13kts
04-Oct-19 08:18 36.603950 -121.884640 319 1710ft 226kts
04-Oct-19 08:19 36.658645 -121.918316 339 3859ft 213kts
04-Oct-19 08:20 36.702525 -121.959692 288 5970ft 222kts
04-Oct-19 08:21 36.711492 -122.036549 280 6275ft 222kts
04-Oct-19 08:22 36.668915 -122.069485 138 7387ft 265kts
04-Oct-19 08:23 36.657116 -121.977180 83 9583ft 280kts
04-Oct-19 08:24 36.659132 -121.863157 86 11875ft 370kts
04-Oct-19 08:25 36.661504 -121.734327 86 14150ft 376kts
04-Oct-19 08:26 36.663926 -121.603874 86 16403ft 393kts
04-Oct-19 08:27 36.672706 -121.465039 83 18135ft 411kts
04-Oct-19 08:29 36.682210 -121.320728 83 19643ft 423kts
04-Oct-19 08:30 36.691530 -121.173048 83 21144ft 433kts
04-Oct-19 08:31 36.700808 -121.021714 83 22646ft 443kts
04-Oct-19 08:32 36.710152 -120.867202 83 24144ft 453kts
04-Oct-19 08:33 36.727525 -120.711025 73 25722ft 457kts
04-Oct-19 08:34 36.755445 -120.554521 73 27900ft 468kts
04-Oct-19 08:35 36.783808 -120.394085 73 30100ft 476kts
04-Oct-19 08:36 36.812099 -120.232671 73 31183ft 480kts
04-Oct-19 08:37 36.840254 -120.070624 73 31177ft 465kts
04-Oct-19 08:38 36.867701 -119.911797 73 31187ft 469kts
04-Oct-19 08:39 36.926646 -119.774220 36 31181ft 442kts
04-Oct-19 08:40 37.021477 -119.679014 32 31178ft 439kts
04-Oct-19 08:41 37.116656 -119.583037 31 31182ft 439kts
04-Oct-19 08:42 37.210671 -119.484575 32 31189ft 440kts
04-Oct-19 08:43 37.304530 -119.386133 32 31199ft 440kts
04-Oct-19 08:44 37.397529 -119.285420 43 31204ft 450kts
04-Oct-19 08:45 37.457277 -119.143103 57 31213ft 464kts
04-Oct-19 08:46 37.515116 -118.997717 56 31225ft 464kts
04-Oct-19 08:46 37.563965 -118.876549 56 31235ft 464kts
04-Oct-19 08:48 37.632057 -118.707481 56 31237ft 465kts
04-Oct-19 08:49 37.690616 -118.561454 56 31219ft 467kts
04-Oct-19 08:49 37.739450 -118.439176 55 31204ft 468kts
04-Oct-19 08:51 37.807899 -118.266972 56 31167ft 470kts
04-Oct-19 08:52 37.866545 -118.118684 56 31173ft 472kts
04-Oct-19 08:52 37.915355 -117.994693 56 31180ft 473kts
04-Oct-19 08:54 37.983524 -117.820200 58 31189ft 475kts
04-Oct-19 08:54 38.010902 -117.682823 78 31195ft 492kts
04-Oct-19 08:55 38.025805 -117.509886 78 31196ft 494kts
04-Oct-19 08:56 38.040489 -117.336714 78 31198ft 495kts
04-Oct-19 08:57 38.054987 -117.162607 79 31201ft 497kts
04-Oct-19 08:58 38.069239 -116.988228 79 31201ft 498kts
04-Oct-19 08:59 38.083339 -116.812508 79 31200ft 499kts
04-Oct-19 09:00 38.097125 -116.637355 79 31198ft 500kts
04-Oct-19 09:01 38.110733 -116.460988 79 31194ft 501kts
04-Oct-19 09:02 38.124061 -116.284807 79 31190ft 501kts
04-Oct-19 09:03 38.137073 -116.109294 80 31196ft 500kts
04-Oct-19 09:04 38.149838 -115.933402 80 31185ft 500kts
04-Oct-19 09:05 38.162389 -115.756874 80 31177ft 500kts
04-Oct-19 09:06 38.174634 -115.580779 81 31171ft 501kts
04-Oct-19 09:07 38.186612 -115.404725 82 31131ft 502kts
04-Oct-19 09:08 38.198390 -115.227698 83 31123ft 503kts
04-Oct-19 09:09 38.209930 -115.050010 84 31131ft 503kts
04-Oct-19 09:10 38.221166 -114.872878 85 31131ft 503kts
04-Oct-19 09:11 38.232153 -114.695391 85 31116ft 503kts
04-Oct-19 09:12 38.242849 -114.518251 86 31114ft 502kts
04-Oct-19 09:13 38.253837 -114.341067 85 31111ft 501kts
04-Oct-19 09:14 38.269338 -114.165222 84 31104ft 501kts
04-Oct-19 09:15 38.284185 -113.988772 85 31101ft 501kts
04-Oct-19 09:16 38.298610 -113.812201 85 31098ft 501kts
04-Oct-19 09:17 38.312729 -113.635678 86 31095ft 501kts
04-Oct-19 09:18 38.326548 -113.459468 86 31094ft 501kts
04-Oct-19 09:19 38.340129 -113.282822 87 31093ft 501kts
04-Oct-19 09:20 38.353461 -113.105871 88 31092ft 501kts
04-Oct-19 09:21 38.375725 -112.930250 79 31093ft 504kts
04-Oct-19 09:22 38.407686 -112.756168 80 31096ft 504kts
04-Oct-19 09:23 38.439426 -112.581818 80 31106ft 505kts
04-Oct-19 09:24 38.470840 -112.407804 80 31116ft 505kts
04-Oct-19 09:25 38.502193 -112.232538 81 31123ft 505kts
04-Oct-19 09:26 38.533151 -112.057892 81 31135ft 505kts
04-Oct-19 09:27 38.563843 -111.883132 81 31131ft 504kts
04-Oct-19 09:28 38.594311 -111.707987 81 31121ft 503kts
04-Oct-19 09:29 38.624358 -111.533625 82 31112ft 503kts
04-Oct-19 09:30 38.654191 -111.358844 82 31102ft 502kts
04-Oct-19 09:31 38.683719 -111.184178 82 31093ft 502kts
04-Oct-19 09:32 38.712959 -111.009534 82 31086ft 502kts
04-Oct-19 09:33 38.741968 -110.834571 82 31082ft 501kts
04-Oct-19 09:34 38.770598 -110.660165 82 31081ft 500kts
04-Oct-19 09:35 38.798937 -110.485812 82 31072ft 499kts
04-Oct-19 09:36 38.826989 -110.311491 83 31071ft 498kts
04-Oct-19 09:37 38.854692 -110.137583 83 31067ft 498kts
04-Oct-19 09:38 38.882155 -109.963425 83 31064ft 497kts
04-Oct-19 09:39 38.909286 -109.789598 83 31062ft 497kts
04-Oct-19 09:40 38.936250 -109.615050 83 31066ft 497kts
04-Oct-19 09:41 38.962900 -109.440719 84 31073ft 497kts
04-Oct-19 09:42 38.989278 -109.266313 84 31080ft 497kts
04-Oct-19 09:43 39.015354 -109.092061 84 31086ft 497kts
04-Oct-19 09:44 39.041203 -108.917459 84 31085ft 497kts
04-Oct-19 09:45 39.067832 -108.742747 80 31075ft 499kts
04-Oct-19 09:46 39.122709 -108.580861 50 31079ft 508kts
04-Oct-19 09:47 39.205359 -108.433878 61 31073ft 506kts
04-Oct-19 09:48 39.273314 -108.274946 64 31080ft 504kts
04-Oct-19 09:49 39.338709 -108.115339 65 31090ft 504kts
04-Oct-19 09:50 39.404070 -107.954717 65 31104ft 503kts
04-Oct-19 09:51 39.468832 -107.794681 65 30830ft 503kts
04-Oct-19 09:52 39.531749 -107.638410 65 30150ft 502kts
04-Oct-19 09:53 39.593426 -107.484468 65 28733ft 472kts
04-Oct-19 09:54 39.653384 -107.333998 65 27237ft 464kts
04-Oct-19 09:55 39.711780 -107.186732 65 25742ft 454kts
04-Oct-19 09:56 39.768759 -107.042197 64 23670ft 443kts
04-Oct-19 09:57 39.823754 -106.902190 64 21174ft 425kts
04-Oct-19 09:58 39.876270 -106.767932 64 18677ft 407kts
04-Oct-19 09:59 39.942522 -106.655240 36 16723ft 389kts
04-Oct-19 10:00 39.988384 -106.538765 101 15340ft 363kts
04-Oct-19 10:01 39.933315 -106.454009 169 14155ft 291kts
04-Oct-19 10:02 39.859563 -106.475494 222 14072ft 280kts
04-Oct-19 10:03 39.821526 -106.562104 241 14049ft 245kts
04-Oct-19 10:04 39.777410 -106.611625 196 13503ft 211kts
04-Oct-19 10:05 39.721865 -106.632990 199 12540ft 210kts
04-Oct-19 10:06 39.685789 -106.677127 245 11721ft 162kts
04-Oct-19 10:07 39.671940 -106.725433 246 11214ft 128kts
04-Oct-19 10:08 39.661174 -106.774199 250 10534ft 138kts
04-Oct-19 10:09 39.652875 -106.826592 256 8754ft 155kts
04-Oct-19 10:10 39.646554 -106.880495 262 6890ft 141kts
04-Oct-19 10:11 39.642169 -106.921062 259 6538ft 36kts
04-Oct-19 10:12 39.641093 -106.922579 143 6538ft 1kts
04-Oct-19 10:13 39.641484 -106.917474 82 6538ft 21kts
04-Oct-19 10:14 39.641540 -106.912196 129 6538ft 3kts
04-Oct-19 10:15 39.641745 -106.909702 83 6538ft 6kts

Navigation Log

Ident Type
Flight plan parsing failed, navigation log unavailable